createdAt,value
2022-09-04T00:02:23.391Z,5.45
2022-09-04T00:08:03.007Z,5.57
2022-09-04T00:13:18.340Z,4.70
2022-09-04T00:18:34.005Z,5.32
2022-09-04T00:23:57.150Z,5.15
2022-09-04T00:29:06.236Z,5.43
2022-09-04T00:34:29.339Z,5.25
2022-09-04T00:39:43.720Z,4.75
2022-09-04T00:45:13.820Z,5.30
2022-09-04T00:50:31.548Z,4.80
2022-09-04T00:56:01.553Z,4.45
2022-09-04T01:01:04.506Z,4.15
2022-09-04T01:06:21.907Z,4.72
2022-09-04T01:11:34.127Z,5.50
2022-09-04T01:16:44.088Z,5.90
2022-09-04T01:22:13.843Z,5.28
2022-09-04T01:27:26.717Z,5.40
2022-09-04T01:32:49.705Z,5.07
2022-09-04T01:38:17.992Z,5.55
2022-09-04T01:43:22.762Z,5.78
2022-09-04T01:48:59.229Z,5.30
2022-09-04T01:54:16.961Z,5.32
2022-09-04T01:59:29.929Z,5.32
2022-09-04T02:04:53.651Z,5.03
2022-09-04T02:10:37.140Z,5.40
2022-09-04T02:16:04.806Z,5.80
2022-09-04T02:21:54.990Z,4.78
2022-09-04T02:27:03.004Z,5.25
2022-09-04T02:32:21.429Z,4.40
2022-09-04T02:37:55.631Z,4.80
2022-09-04T02:43:24.980Z,5.60
2022-09-04T02:48:53.921Z,5.07
2022-09-04T02:54:06.796Z,5.20
2022-09-04T02:59:33.014Z,4.97
2022-09-04T03:05:00.525Z,5.10
2022-09-04T03:10:25.009Z,5.55
2022-09-04T03:15:43.895Z,5.70
2022-09-04T03:20:52.647Z,5.45
2022-09-04T03:26:15.206Z,5.15
2022-09-04T03:31:32.625Z,5.65
2022-09-04T03:36:43.638Z,6.03
2022-09-04T03:41:45.764Z,5.57
2022-09-04T03:47:00.024Z,5.60
2022-09-04T03:52:18.052Z,4.80
2022-09-04T03:57:41.549Z,5.65
2022-09-04T04:03:08.547Z,6.03
2022-09-04T04:08:33.553Z,5.18
2022-09-04T04:14:01.170Z,7.00
2022-09-04T04:19:22.321Z,5.70
2022-09-04T04:24:57.444Z,6.00
2022-09-04T04:30:12.317Z,5.40
2022-09-04T04:35:28.372Z,5.75
2022-09-04T04:40:39.255Z,5.50
2022-09-04T04:45:50.280Z,5.70
2022-09-04T04:51:06.068Z,5.78
2022-09-04T04:56:26.276Z,5.65
2022-09-04T05:01:34.316Z,6.22
2022-09-04T05:07:01.494Z,5.65
2022-09-04T05:12:34.381Z,5.43
2022-09-04T05:18:22.733Z,5.30
2022-09-04T05:23:56.232Z,6.43
2022-09-04T05:29:04.746Z,5.63
2022-09-04T05:34:20.709Z,5.65
2022-09-04T05:39:30.526Z,5.95
2022-09-04T05:45:01.315Z,6.35
2022-09-04T05:50:24.728Z,5.28
2022-09-04T05:55:35.851Z,5.85
2022-09-04T06:00:51.819Z,6.18
2022-09-04T06:06:13.865Z,6.22
2022-09-04T06:11:43.677Z,7.05
2022-09-04T06:17:10.395Z,7.78
2022-09-04T06:22:52.777Z,7.18
2022-09-04T06:28:09.032Z,7.90
2022-09-04T06:33:23.006Z,7.97
2022-09-04T06:39:19.533Z,8.30
2022-09-04T06:44:31.937Z,10.20
2022-09-04T06:49:56.864Z,10.05
2022-09-04T06:55:00.545Z,10.68
2022-09-04T07:00:08.840Z,11.25
2022-09-04T07:05:29.544Z,11.60
2022-09-04T07:10:39.968Z,12.07
2022-09-04T07:16:00.653Z,11.10
2022-09-04T07:21:30.391Z,12.40
2022-09-04T07:26:47.370Z,11.52
2022-09-04T07:32:04.687Z,13.18
2022-09-04T07:37:27.149Z,11.55
2022-09-04T07:42:32.644Z,11.38
2022-09-04T07:47:43.216Z,11.68
2022-09-04T07:53:06.366Z,11.53
2022-09-04T07:58:32.199Z,10.68
2022-09-04T08:03:53.976Z,10.70
2022-09-04T08:09:04.129Z,10.32
2022-09-04T08:14:20.802Z,10.93
2022-09-04T08:19:40.659Z,9.23
2022-09-04T08:25:20.319Z,11.15
2022-09-04T08:30:22.922Z,11.68
2022-09-04T08:35:49.173Z,11.55
2022-09-04T08:41:29.040Z,10.57
2022-09-04T08:47:01.770Z,10.02
2022-09-04T08:52:41.668Z,10.80
2022-09-04T08:57:55.423Z,11.23
2022-09-04T09:03:23.924Z,11.00
2022-09-04T09:09:03.728Z,12.13
2022-09-04T09:14:21.395Z,12.05
2022-09-04T09:19:59.166Z,11.52
2022-09-04T09:25:34.530Z,11.55
2022-09-04T09:31:01.870Z,10.77
2022-09-04T09:36:35.402Z,11.57
2022-09-04T09:42:06.523Z,12.65
2022-09-04T09:47:38.023Z,9.47
2022-09-04T09:53:11.209Z,9.25
2022-09-04T09:58:44.426Z,8.95
2022-09-04T10:04:14.104Z,8.93
2022-09-04T10:09:53.137Z,6.63
2022-09-04T10:15:00.879Z,6.75
2022-09-04T10:20:46.169Z,7.15
2022-09-04T10:26:09.545Z,4.88
2022-09-04T10:31:53.393Z,4.95
2022-09-04T10:37:23.350Z,3.00
2022-09-04T10:42:43.287Z,3.53
2022-09-04T10:48:09.939Z,4.10
2022-09-04T10:53:41.532Z,5.53
2022-09-04T11:04:35.373Z,3.10
2022-09-04T11:09:55.844Z,3.38
2022-09-04T11:15:19.292Z,2.65
2022-09-04T11:20:52.158Z,3.03
2022-09-04T11:26:15.438Z,2.92
2022-09-04T11:31:35.595Z,2.53
2022-09-04T11:36:59.254Z,2.58
2022-09-04T11:42:33.064Z,2.03
2022-09-04T11:47:38.096Z,1.80
2022-09-04T11:53:14.598Z,1.92
2022-09-04T11:58:40.258Z,2.08
2022-09-04T12:03:57.549Z,1.85
2022-09-04T12:09:41.188Z,1.58
2022-09-04T12:15:09.618Z,1.77
2022-09-04T12:20:26.816Z,1.70
2022-09-04T12:26:00.211Z,1.60
2022-09-04T12:31:33.944Z,1.92
2022-09-04T12:37:14.367Z,1.35
2022-09-04T12:42:42.043Z,1.53
2022-09-04T12:48:27.705Z,1.67
2022-09-04T12:53:44.564Z,1.40
2022-09-04T12:59:01.841Z,1.42
2022-09-04T13:04:20.854Z,1.60
2022-09-04T13:09:36.454Z,1.42
2022-09-04T13:15:09.630Z,1.30
2022-09-04T13:20:30.436Z,1.20
2022-09-04T13:25:52.349Z,0.98
2022-09-04T13:31:20.325Z,1.08
2022-09-04T13:36:30.767Z,0.80
2022-09-04T13:41:42.189Z,0.90
2022-09-04T13:46:52.849Z,0.63
2022-09-04T13:52:06.704Z,0.60
2022-09-04T13:57:28.265Z,0.60
2022-09-04T14:02:31.660Z,0.82
2022-09-04T14:07:44.695Z,0.90
2022-09-04T14:12:57.564Z,0.98
2022-09-04T14:18:18.792Z,1.00
2022-09-04T14:23:40.362Z,1.08
2022-09-04T14:28:49.013Z,0.90
2022-09-04T14:34:03.833Z,0.80
2022-09-04T14:39:27.411Z,0.80
2022-09-04T14:44:55.095Z,0.90
2022-09-04T14:50:02.397Z,0.73
2022-09-04T14:55:05.433Z,0.93
2022-09-04T15:00:18.162Z,0.70
2022-09-04T15:05:29.187Z,0.70
2022-09-04T15:10:49.778Z,0.80
2022-09-04T15:15:59.136Z,0.70
2022-09-04T15:21:17.279Z,0.95
2022-09-04T15:26:34.222Z,0.70
2022-09-04T15:31:39.863Z,0.73
2022-09-04T15:36:42.000Z,1.15
2022-09-04T15:41:49.861Z,0.80
2022-09-04T15:47:18.198Z,0.90
2022-09-04T15:52:48.400Z,0.98
2022-09-04T15:58:09.075Z,0.90
2022-09-04T16:03:20.847Z,3.20
2022-09-04T16:08:46.994Z,34.50
2022-09-04T16:14:08.326Z,2.63
2022-09-04T16:19:21.871Z,1.60
2022-09-04T16:24:43.611Z,14.90
2022-09-04T16:29:53.420Z,4.15
2022-09-04T16:35:01.785Z,10.52
2022-09-04T16:40:21.654Z,10.85
2022-09-04T16:45:34.518Z,3.37
2022-09-04T16:51:09.812Z,1.80
2022-09-04T16:56:36.821Z,1.10
2022-09-04T17:02:24.595Z,1.05
2022-09-04T17:07:42.952Z,1.10
2022-09-04T17:12:53.257Z,1.20
2022-09-04T17:17:56.264Z,1.30
2022-09-04T17:29:03.037Z,1.65
2022-09-04T17:29:29.486Z,1.55
2022-09-04T17:40:12.367Z,2.45
2022-09-04T17:40:48.574Z,1.10
2022-09-04T17:45:51.178Z,1.30
2022-09-04T17:50:58.766Z,1.52
2022-09-04T17:56:29.818Z,1.40
2022-09-04T18:01:50.562Z,1.85
2022-09-04T18:06:55.585Z,2.00
2022-09-04T18:12:11.058Z,1.40
2022-09-04T18:17:22.256Z,1.90
2022-09-04T18:22:33.196Z,1.90
2022-09-04T18:27:45.029Z,1.60
2022-09-04T18:37:23.853Z,1.70
2022-09-04T18:38:29.033Z,2.25
2022-09-04T18:50:20.804Z,2.10
2022-09-04T18:50:35.749Z,2.00
2022-09-04T18:54:49.746Z,1.75
2022-09-04T19:00:08.706Z,2.03
2022-09-04T19:05:15.309Z,2.20
2022-09-04T19:10:35.359Z,1.95
2022-09-04T19:15:53.917Z,2.47
2022-09-04T19:21:09.934Z,2.20
2022-09-04T19:26:55.395Z,3.10
2022-09-04T19:32:06.003Z,2.30
2022-09-04T19:37:58.431Z,2.70
2022-09-04T19:46:08.897Z,2.50
2022-09-04T19:48:20.619Z,2.45
2022-09-04T19:53:42.139Z,2.42
2022-09-04T19:58:55.322Z,2.30
2022-09-04T20:04:02.821Z,2.50
2022-09-04T20:09:11.564Z,2.45
2022-09-04T20:14:41.932Z,2.58
2022-09-04T20:19:49.359Z,2.50
2022-09-04T20:25:12.175Z,3.33
2022-09-04T20:30:21.133Z,2.65
2022-09-04T20:35:44.260Z,9.52
2022-09-04T20:40:52.193Z,9.52
2022-09-04T20:48:37.683Z,8.20
2022-09-04T20:53:04.553Z,5.78
2022-09-04T21:01:05.474Z,5.05
2022-09-04T21:03:17.735Z,5.70
2022-09-04T21:08:37.930Z,5.07
2022-09-04T21:13:51.505Z,4.07
2022-09-04T21:19:28.215Z,3.30
2022-09-04T21:24:51.724Z,2.90
2022-09-04T21:30:18.358Z,2.92
2022-09-04T21:35:30.461Z,2.90
2022-09-04T21:40:54.187Z,3.10
2022-09-04T21:46:20.521Z,2.70
2022-09-04T21:51:44.875Z,2.63
2022-09-04T22:02:29.876Z,2.85
2022-09-04T22:03:04.091Z,2.80
2022-09-04T22:13:10.930Z,2.45
2022-09-04T22:13:50.396Z,2.60
2022-09-04T22:19:17.579Z,2.78
2022-09-04T22:24:41.692Z,2.90
2022-09-04T22:30:05.869Z,2.67
2022-09-04T22:35:41.421Z,2.90
2022-09-04T22:41:04.984Z,2.47
2022-09-04T22:46:18.916Z,2.90
2022-09-04T22:52:17.294Z,3.05
2022-09-04T22:57:27.138Z,2.45
2022-09-04T23:03:09.617Z,2.88
2022-09-04T23:13:52.295Z,3.00
2022-09-04T23:14:34.184Z,3.05
2022-09-04T23:26:31.251Z,2.90
2022-09-04T23:26:48.842Z,2.60
2022-09-04T23:31:37.601Z,2.95
2022-09-04T23:37:08.596Z,2.63
2022-09-04T23:42:36.287Z,2.78
2022-09-04T23:48:23.145Z,2.78
2022-09-04T23:53:35.067Z,2.78
2022-09-04T23:59:09.906Z,3.05
